Time;durP1;ratioP1;P1;durP2;ratioP2;P2;SDS_P1;SDS_P2;PMS_P1;PMS_P2;Temp;Humidity;BMP_temperature;BMP_pressure;BME280_temperature;BME280_humidity;BME280_pressure;Samples;Min_cycle;Max_cycle;Signal;HPM_P1;HPM_P2
2022/03/21 00:03:47;;;;;;;;;;;4.30;99.90;;;;;;20899316;28;20504;-75
2022/03/21 00:13:49;;;;;;;22.15;10.25;;;4.60;99.90;;;;;;20907815;28;19919;-76
2022/03/21 00:23:50;;;;;;;19.05;9.68;;;4.30;99.90;;;;;;20907492;28;20113;-76
2022/03/21 00:33:51;;;;;;;22.40;9.83;;;4.50;99.90;;;;;;20890290;28;20064;-75
2022/03/21 00:43:52;;;;;;;28.33;10.80;;;4.10;99.90;;;;;;20888761;28;20344;-76
2022/03/21 00:53:53;;;;;;;25.15;10.10;;;4.00;99.90;;;;;;20906505;28;20115;-76
2022/03/21 01:03:54;;;;;;;19.10;9.68;;;4.10;99.90;;;;;;20905931;28;20094;-76
2022/03/21 01:13:54;;;;;;;24.80;10.30;;;3.90;99.90;;;;;;20901167;28;20029;-76
2022/03/21 01:23:55;;;;;;;23.38;10.95;;;3.80;99.90;;;;;;20920738;28;20325;-76
2022/03/21 01:33:56;;;;;;;;;;;3.50;99.90;;;;;;20902924;28;20036;-76
2022/03/21 01:44:05;;;;;;;23.50;10.53;;;3.40;99.90;;;;;;20919155;28;19908;-76
2022/03/21 02:04:26;;;;;;;28.85;10.73;;;3.00;99.90;;;;;;20917657;28;20041;-75
2022/03/21 02:14:27;;;;;;;27.70;12.10;;;2.70;99.90;;;;;;20917046;28;20484;-78
2022/03/21 02:24:40;;;;;;;22.83;10.02;;;2.40;99.90;;;;;;20916722;28;20033;-78
2022/03/21 02:34:41;;;;;;;22.15;10.68;;;2.40;99.90;;;;;;20915533;28;20048;-78
2022/03/21 02:44:42;;;;;;;22.05;9.98;;;3.00;99.90;;;;;;20914640;28;20104;-76
2022/03/21 02:54:42;;;;;;;;;;;3.20;99.90;;;;;;20914101;28;20060;-76
2022/03/21 03:04:43;;;;;;;27.70;10.82;;;3.10;99.90;;;;;;20912793;28;19912;-75
2022/03/21 03:14:44;;;;;;;;;;;2.70;99.90;;;;;;20912467;28;20029;-78
2022/03/21 03:24:46;;;;;;;26.63;11.50;;;2.10;99.90;;;;;;20916621;28;19909;-78
2022/03/21 03:34:47;;;;;;;22.15;10.73;;;2.60;99.90;;;;;;20892305;28;20047;-76
2022/03/21 03:44:48;;;;;;;25.33;11.63;;;2.60;99.90;;;;;;20909930;28;20059;-77
2022/03/21 03:54:48;;;;;;;27.60;11.27;;;2.40;99.90;;;;;;20908971;28;20071;-77
2022/03/21 04:04:49;;;;;;;27.85;11.73;;;2.30;99.90;;;;;;20907779;28;20039;-77
2022/03/21 04:14:50;;;;;;;22.70;11.35;;;1.90;99.90;;;;;;20888372;28;20112;-77
2022/03/21 04:24:51;;;;;;;26.23;9.88;;;2.30;99.90;;;;;;20891690;28;20033;-77
2022/03/21 04:34:52;;;;;;;31.30;11.50;;;2.30;99.90;;;;;;20907077;28;20096;-77
2022/03/21 04:44:52;;;;;;;;;;;2.60;99.90;;;;;;20914633;28;20094;-75
2022/03/21 04:54:54;;;;;;;28.67;10.75;;;2.40;99.90;;;;;;20922312;28;19912;-76
2022/03/21 05:04:55;;;;;;;26.92;12.60;;;2.10;99.90;;;;;;20920168;28;20491;-76
2022/03/21 05:14:56;;;;;;;23.80;12.15;;;1.60;99.90;;;;;;20922177;28;20098;-77
2022/03/21 05:45:35;;;;;;;29.17;13.52;;;2.50;99.90;;;;;;20919311;28;20433;-77
2022/03/21 05:55:36;;;;;;;32.85;14.60;;;2.50;99.90;;;;;;20918268;28;20151;-77
2022/03/21 06:05:37;;;;;;;33.97;13.95;;;2.60;99.90;;;;;;20915180;28;20044;-77
2022/03/21 06:15:39;;;;;;;31.45;13.63;;;2.60;99.90;;;;;;20915349;28;20028;-77
2022/03/21 06:25:40;;;;;;;28.67;12.07;;;2.90;99.90;;;;;;20915997;28;20091;-78
2022/03/21 06:35:41;;;;;;;30.00;13.43;;;3.30;99.90;;;;;;20915759;28;20032;-77
2022/03/21 06:45:42;;;;;;;;;;;3.60;99.90;;;;;;20897381;28;20041;-77
2022/03/21 06:55:44;;;;;;;30.30;13.13;;;4.00;99.90;;;;;;20913797;28;19913;-77
2022/03/21 07:05:45;;;;;;;27.00;12.82;;;4.30;99.90;;;;;;20912282;28;20059;-75
2022/03/21 07:15:46;;;;;;;27.15;13.30;;;4.90;99.90;;;;;;20912109;28;20040;-76
2022/03/21 07:25:47;;;;;;;25.80;13.23;;;5.70;99.90;;;;;;20911407;28;20480;-75
2022/03/21 07:35:48;;;;;;;32.38;13.38;;;6.30;99.90;;;;;;20892849;28;20033;-77
2022/03/21 07:56:09;;;;;;;26.38;13.63;;;6.80;99.90;;;;;;20909493;28;20037;-77
2022/03/21 08:06:12;;;;;;;;;;;6.60;99.90;;;;;;20908977;28;20029;-77
2022/03/21 08:16:13;;;;;;;30.88;14.27;;;8.10;99.90;;;;;;20908060;28;20009;-77
2022/03/21 08:26:13;;;;;;;29.93;13.93;;;8.90;99.90;;;;;;20908143;28;20046;-77
2022/03/21 08:36:14;;;;;;;29.53;13.97;;;9.00;99.90;;;;;;20907079;28;20064;-77
2022/03/21 08:46:15;;;;;;;28.77;14.00;;;9.90;99.90;;;;;;20906756;28;20029;-77
2022/03/21 08:56:16;;;;;;;25.40;13.50;;;11.40;99.90;;;;;;20888706;28;20033;-77
2022/03/21 09:06:20;;;;;;;23.80;12.70;;;12.10;99.90;;;;;;20906036;28;20087;-77
2022/03/21 09:16:21;;;;;;;28.08;13.48;;;12.50;99.90;;;;;;20887824;28;20087;-77
2022/03/21 09:26:22;;;;;;;27.17;12.37;;;12.60;99.90;;;;;;20905588;28;20053;-77
2022/03/21 09:36:23;;;;;;;20.03;10.93;;;13.10;99.90;;;;;;20919945;28;20511;-78
2022/03/21 09:46:24;;;;;;;19.23;9.50;;;14.00;99.90;;;;;;20919626;28;20032;-78
2022/03/21 09:56:27;;;;;;;17.17;9.97;;;14.80;99.90;;;;;;20900874;28;20025;-78
2022/03/21 10:06:35;;;;;;;17.63;9.32;;;15.20;99.90;;;;;;20918524;28;20041;-76
2022/03/21 10:16:54;;;;;;;18.70;9.93;;;15.00;99.80;;;;;;20917730;28;20028;-77
2022/03/21 10:26:56;;;;;;;17.80;10.48;;;15.00;99.90;;;;;;20916335;28;20032;-78
2022/03/21 10:37:00;;;;;;;14.50;8.80;;;16.30;97.50;;;;;;20915417;28;20033;-78
2022/03/21 10:47:04;;;;;;;15.88;8.73;;;17.30;95.10;;;;;;20913539;28;20041;-78
2022/03/21 10:57:07;;;;;;;16.23;9.27;;;18.00;95.90;;;;;;20896018;28;20028;-78
2022/03/21 11:07:11;;;;;;;18.83;9.00;;;17.70;96.70;;;;;;20912920;28;20028;-77
2022/03/21 11:17:12;;;;;;;19.20;10.38;;;18.90;92.60;;;;;;20912366;28;20033;-77
2022/03/21 11:27:22;;;;;;;20.30;10.20;;;19.30;92.80;;;;;;20893966;28;20028;-78
2022/03/21 11:37:25;;;;;;;22.58;11.00;;;18.30;94.10;;;;;;20911070;28;20505;-78
2022/03/21 11:47:28;;;;;;;23.95;10.73;;;18.20;93.20;;;;;;20910007;28;20075;-77
2022/03/21 11:57:31;;;;;;;23.77;11.23;;;17.60;91.00;;;;;;20909547;28;20040;-77
2022/03/21 12:07:33;;;;;;;16.70;10.05;;;19.20;90.70;;;;;;20906719;28;20036;-78
2022/03/21 12:17:34;;;;;;;26.85;11.27;;;19.70;86.70;;;;;;20909389;28;20056;-77
2022/03/21 12:27:55;;;;;;;16.23;10.43;;;19.80;83.90;;;;;;20909597;28;20020;-76
2022/03/21 12:37:59;;;;;;;18.08;10.38;;;19.90;85.10;;;;;;20906104;28;20029;-76
2022/03/21 12:48:04;;;;;;;17.48;9.27;;;19.80;81.80;;;;;;20906875;28;20100;-76
2022/03/21 12:58:07;;;;;;;18.02;9.32;;;18.60;85.80;;;;;;20906848;28;20145;-76
2022/03/21 13:18:37;;;;;;;14.50;8.00;;;19.30;81.70;;;;;;20921749;28;20028;-76
2022/03/21 13:28:38;;;;;;;17.13;8.02;;;19.10;80.60;;;;;;20921478;28;20441;-77
2022/03/21 13:38:39;;;;;;;;;;;19.10;82.30;;;;;;20921376;28;20033;-77
2022/03/21 13:48:42;;;;;;;24.83;7.72;;;19.40;79.60;;;;;;20913119;28;20443;-76
2022/03/21 13:58:43;;;;;;;21.98;7.35;;;19.20;79.80;;;;;;20906404;28;20119;-76
2022/03/21 14:08:44;;;;;;;18.33;8.00;;;19.30;77.40;;;;;;20937691;22;20130;-78
2022/03/21 14:18:56;;;;;;;23.57;6.53;;;19.50;76.50;;;;;;20882927;28;20025;-77
2022/03/21 14:28:57;;;;;;;17.25;6.85;;;19.70;76.00;;;;;;20815720;28;20057;-76
2022/03/21 14:38:58;;;;;;;21.80;8.23;;;19.30;73.80;;;;;;20814427;28;20025;-77
2022/03/21 14:49:00;;;;;;;21.90;6.70;;;19.10;73.50;;;;;;20856596;28;20060;-78
2022/03/21 14:59:01;;;;;;;24.23;8.13;;;18.30;75.40;;;;;;20847413;28;20037;-78
2022/03/21 15:09:02;;;;;;;18.50;7.27;;;18.20;77.10;;;;;;20894128;28;20450;-78
2022/03/21 15:19:03;;;;;;;16.17;6.30;;;18.20;74.60;;;;;;20852561;28;20039;-77
2022/03/21 15:29:04;;;;;;;18.13;6.23;;;17.70;78.20;;;;;;20817905;28;20120;-75
2022/03/21 15:49:25;;;;;;;15.07;5.65;;;17.20;74.90;;;;;;20815522;28;20036;-75
2022/03/21 15:59:26;;;;;;;22.00;5.97;;;17.30;77.50;;;;;;20890082;28;20531;-75
2022/03/21 16:09:27;;;;;;;20.43;6.00;;;16.80;76.50;;;;;;20889833;28;20116;-75
2022/03/21 16:19:28;;;;;;;13.13;5.60;;;16.60;75.20;;;;;;20862172;28;20028;-76
2022/03/21 16:29:28;;;;;;;23.03;5.67;;;16.30;76.90;;;;;;20807394;28;20096;-75
2022/03/21 16:39:32;;;;;;;16.73;6.50;;;16.00;77.30;;;;;;20813176;28;20128;-75
2022/03/21 16:49:33;;;;;;;33.35;7.25;;;15.60;79.50;;;;;;20864856;28;20055;-75
2022/03/21 16:59:36;;;;;;;27.83;10.15;;;15.70;76.80;;;;;;20822033;28;20056;-75
2022/03/21 17:09:37;;;;;;;22.77;7.10;;;15.60;78.00;;;;;;20822649;28;20411;-75
2022/03/21 17:29:58;;;;;;;20.27;5.40;;;14.70;81.20;;;;;;20820663;28;20284;-74
2022/03/21 17:39:59;;;;;;;21.30;6.67;;;13.10;90.40;;;;;;20839026;28;20063;-77
2022/03/21 17:50:00;;;;;;;15.43;5.67;;;12.60;90.70;;;;;;20869940;28;20041;-77
2022/03/21 18:00:00;;;;;;;22.43;6.10;;;12.10;91.30;;;;;;20830657;28;20029;-76
2022/03/21 18:10:01;;;;;;;20.40;6.20;;;11.70;91.70;;;;;;20899353;28;20491;-77
2022/03/21 18:20:05;;;;;;;21.20;6.03;;;11.60;91.80;;;;;;20849969;28;20136;-77
2022/03/21 18:30:06;;;;;;;19.73;6.30;;;11.50;92.30;;;;;;20849691;28;20040;-77
2022/03/21 18:40:08;;;;;;;14.32;5.38;;;11.20;93.00;;;;;;20903237;28;20033;-76
2022/03/21 18:50:09;;;;;;;24.87;6.13;;;10.80;94.30;;;;;;20876042;28;20071;-76
2022/03/21 19:00:17;;;;;;;19.58;6.05;;;10.60;95.10;;;;;;20872730;28;20067;-77
2022/03/21 19:10:18;;;;;;;32.10;7.07;;;10.40;95.30;;;;;;20878133;28;20515;-77
2022/03/21 19:20:22;;;;;;;17.58;5.13;;;10.10;96.00;;;;;;20889079;28;20490;-77
2022/03/21 19:30:25;;;;;;;19.25;5.63;;;10.30;95.50;;;;;;20892968;28;20029;-76
2022/03/21 19:40:26;;;;;;;18.48;6.05;;;10.00;96.30;;;;;;20873855;28;20090;-77
2022/03/21 19:50:29;;;;;;;23.35;4.90;;;9.90;96.40;;;;;;20857276;28;20108;-76
2022/03/21 20:00:32;;;;;;;22.17;6.80;;;9.90;96.80;;;;;;20808739;28;20041;-76
2022/03/21 20:10:32;;;;;;;22.42;5.75;;;9.20;98.50;;;;;;20907086;22;20106;-74
2022/03/21 20:20:35;;;;;;;16.23;5.40;;;9.10;99.00;;;;;;20936065;28;20041;-74
2022/03/21 20:30:36;;;;;;;15.27;4.97;;;8.90;99.60;;;;;;20854534;28;20135;-74
2022/03/21 20:40:38;;;;;;;24.52;5.40;;;8.80;99.70;;;;;;20870451;28;20033;-74
2022/03/21 20:50:39;;;;;;;15.17;5.10;;;8.90;99.50;;;;;;20888280;28;20037;-74
2022/03/21 21:00:40;;;;;;;12.87;5.13;;;9.00;99.00;;;;;;20888074;28;20036;-74
2022/03/21 21:10:51;;;;;;;15.15;5.20;;;9.00;99.20;;;;;;20887981;28;20040;-74
2022/03/21 21:20:55;;;;;;;17.92;4.85;;;8.90;99.20;;;;;;20886802;28;20036;-74
2022/03/21 21:30:57;;;;;;;16.60;4.30;;;8.60;99.50;;;;;;20901289;28;20116;-74
2022/03/21 21:40:58;;;;;;;11.90;5.00;;;8.40;99.90;;;;;;20914140;28;20503;-74
2022/03/21 21:50:59;;;;;;;12.23;4.38;;;8.30;99.70;;;;;;20922714;28;20120;-74
2022/03/21 22:01:00;;;;;;;10.07;4.30;;;8.30;99.90;;;;;;20902067;28;20025;-74
2022/03/21 22:11:03;;;;;;;10.90;3.93;;;8.60;99.40;;;;;;20904737;28;20055;-74
2022/03/21 22:21:05;;;;;;;11.20;5.88;;;8.60;98.90;;;;;;20928296;28;20036;-75
2022/03/21 22:31:06;;;;;;;16.95;5.32;;;8.30;99.50;;;;;;20915955;28;20491;-75
2022/03/21 22:51:30;;;;;;;15.68;5.80;;;8.00;99.50;;;;;;20906536;28;20388;-74
2022/03/21 23:01:31;;;;;;;15.27;6.07;;;8.30;98.70;;;;;;20914125;28;20099;-75
2022/03/21 23:11:35;;;;;;;12.95;6.10;;;8.10;99.50;;;;;;20912709;28;20111;-75
2022/03/21 23:21:36;;;;;;;15.20;6.30;;;7.70;99.90;;;;;;20913911;28;20506;-74
2022/03/21 23:31:37;;;;;;;13.30;6.13;;;7.30;99.90;;;;;;20911158;28;20029;-74
2022/03/21 23:51:59;;;;;;;16.63;7.47;;;6.90;99.90;;;;;;20909560;28;20080;-74
